createdAt,value
2022-10-08T00:14:10.106Z,10.2
2022-10-08T00:34:14.726Z,10.1
2022-10-08T00:54:19.733Z,10.1
2022-10-08T01:34:27.872Z,9.8
2022-10-08T01:44:29.794Z,9.8
2022-10-08T01:54:38.822Z,10
2022-10-08T02:04:33.594Z,10
2022-10-08T02:14:35.454Z,10
2022-10-08T02:24:51.649Z,10.1
2022-10-08T02:34:53.410Z,10.4
2022-10-08T02:44:41.976Z,10.7
2022-10-08T02:54:51.417Z,11
2022-10-08T03:04:46.626Z,11.1
2022-10-08T03:14:55.719Z,11.1
2022-10-08T03:24:57.653Z,11.2
2022-10-08T03:34:59.523Z,11.1
2022-10-08T03:44:54.735Z,10.8
2022-10-08T03:54:57.258Z,10.5
2022-10-08T04:15:08.392Z,10.2
2022-10-08T04:25:10.456Z,10.1
2022-10-08T04:35:05.953Z,10.1
2022-10-08T04:45:15.517Z,10.2
2022-10-08T05:05:12.850Z,10.2
2022-10-08T05:45:28.229Z,10.2
2022-10-08T05:55:22.909Z,10.3
2022-10-08T06:05:25.057Z,10.3
2022-10-08T06:15:26.996Z,10.3
2022-10-08T06:45:40.797Z,10.4
2022-10-08T07:05:45.256Z,10.6
2022-10-08T07:15:40.131Z,10.7
2022-10-08T07:25:41.968Z,10.8
2022-10-08T07:35:44.304Z,10.9
2022-10-08T08:05:58.289Z,11.2
2022-10-08T08:15:53.417Z,11.4
2022-10-08T08:26:02.467Z,11.4
2022-10-08T08:35:57.266Z,11.5
2022-10-08T08:46:06.275Z,11.5
2022-10-08T08:56:00.913Z,11.7
2022-10-08T09:06:09.711Z,11.8
2022-10-08T09:16:04.740Z,11.9
2022-10-08T09:26:06.692Z,12.3
2022-10-08T09:36:22.527Z,12.5
2022-10-08T09:46:17.819Z,12.9
2022-10-08T09:56:12.993Z,13
2022-10-08T10:36:21.634Z,14.5
2022-10-08T10:46:30.770Z,14.5
2022-10-08T11:06:28.404Z,13.8
2022-10-08T11:16:37.923Z,14.3
2022-10-08T11:26:40.139Z,14.6
2022-10-08T11:36:42.017Z,14.7
2022-10-08T11:46:51.038Z,15.2
2022-10-08T11:56:46.627Z,14.9
2022-10-08T12:26:45.244Z,15
2022-10-08T12:36:47.591Z,15.1
2022-10-08T12:47:03.577Z,15.1
2022-10-08T13:26:57.669Z,14.7
2022-10-08T13:47:03.663Z,14
2022-10-08T13:57:04.125Z,13.9
2022-10-08T14:17:22.506Z,14.5
2022-10-08T14:47:21.449Z,14.5
2022-10-08T15:27:29.818Z,14.7
2022-10-08T15:47:48.415Z,12.6
2022-10-08T15:57:44.022Z,12.5
2022-10-08T16:08:00.427Z,12.7
2022-10-08T16:17:48.280Z,12.7
2022-10-08T16:27:50.910Z,12.7
2022-10-08T16:37:52.125Z,12.1
2022-10-08T16:47:54.455Z,11.1
2022-10-08T16:57:56.784Z,10.6
2022-10-08T17:08:13.466Z,11.6
2022-10-08T17:18:01.905Z,12
2022-10-08T17:28:04.504Z,11.5
2022-10-08T17:38:06.371Z,10.1
2022-10-08T17:48:08.261Z,9.4
2022-10-08T17:58:10.000Z,8.9
2022-10-08T18:08:19.629Z,8.6
2022-10-08T18:18:14.603Z,8.3
2022-10-08T18:28:16.984Z,8.1
2022-10-08T18:48:21.047Z,7.7
2022-10-08T18:58:30.571Z,7.5
2022-10-08T19:08:33.001Z,7.3
2022-10-08T19:18:35.393Z,7.2
2022-10-08T19:28:37.182Z,7.1
2022-10-08T19:38:31.802Z,7
2022-10-08T19:48:33.791Z,6.9
2022-10-08T19:58:36.162Z,6.7
2022-10-08T20:08:38.816Z,6.6
2022-10-08T20:28:49.372Z,6.4
2022-10-08T20:38:51.514Z,6.2
2022-10-08T20:48:53.856Z,6.1
2022-10-08T20:58:49.109Z,6.1
2022-10-08T21:08:51.395Z,5.9
2022-10-08T21:18:53.976Z,5.9
2022-10-08T21:28:55.781Z,5.8
2022-10-08T21:38:57.922Z,5.7
2022-10-08T21:59:02.066Z,5.6
2022-10-08T22:09:04.317Z,5.6
2022-10-08T22:39:11.768Z,5.2
2022-10-08T23:19:21.449Z,4.9
2022-10-08T23:29:23.873Z,4.8
